• Join FlightAware (Why Join?)
  • Login
  • US Flag 
04:43AM EST


 

Airport Tracker/Info


-or-


 

Live Flight TrackerFlight Track Log ✈ ASQ5740 ✈ 11-Nov-2013 ✈ KGSP - KIAD

Flight Track Log - Related Links

Times and Time Zones

All times are in EST time to prevent confusion due to time zone crossing. See the ASQ5740 flight status page for this flight to view local times or setup timezone preferences in your user account.

Time Position Orientation Groundspeed Altitude Reporting Facility
EST Latitude Longitude Course Direction KTS MPH feet Rate Location/Type
05:27PM 34.9722 -82.0692 63° Northeast 232 267 7,400  Level Atlanta Center
05:28PM 35.0064 -81.9872 63° Northeast 239 275 9,600 1,550 Climbing Atlanta Center
05:29PM 35.2344 -81.8476 North  Level Estimated
05:29PM 35.0719 -81.9247 38° Northeast 268 308 10,500  Level Atlanta Center
05:30PM 35.3189 -81.7543 80° East  Level Estimated
05:30PM 35.1725 -81.9350 355° North 300 345 11,900  Level Atlanta Center
05:31PM 35.4033 -81.6608 71° East  Level Estimated
05:31PM 35.2767 -81.9347 360° North 327 376 13,700  Level Atlanta Center
05:32PM 35.3589 -81.8614 36° Northeast 342 394 15,500 1,800 Climbing Atlanta Center
05:33PM 35.4022 -81.7253 69° East 370 426 17,300 1,650 Climbing Atlanta Center
05:34PM 35.4522 -81.6039 63° Northeast 375 432 18,800 1,450 Climbing Atlanta Center
05:35PM 35.4975 -81.4750 67° East 387 445 20,200 1,200 Climbing Atlanta Center
05:36PM 35.5467 -81.3433 65° Northeast 392 451 21,200 1,050 Climbing Atlanta Center
05:37PM 35.5958 -81.2039 67° East 440 506 22,300 1,050 Climbing Atlanta Center
05:38PM 35.6467 -81.0667 65° Northeast 445 512 23,300 950 Climbing Atlanta Center
05:39PM 35.6975 -80.9267 66° East 440 506 24,200 750 Climbing Atlanta Center
05:40PM 35.7503 -80.7839 65° Northeast 445 512 24,800 574 Climbing Atlanta Center
05:43PM 35.8617 -80.4872 65° Northeast 464 534 26,000 574 Climbing Washington Center
05:44PM 35.9136 -80.3392 67° East 470 541 26,600 610 Climbing Washington Center
05:45PM 35.9719 -80.1861 65° Northeast 475 547 27,200 610 Climbing Washington Center
05:46PM 36.0278 -80.0303 66° East 481 554 27,800 750 Climbing Washington Center
05:47PM 36.0956 -79.8900 59° Northeast 481 554 28,700 750 Climbing Washington Center
05:48PM 36.1756 -79.7528 54° Northeast 476 548 29,300 694 Climbing Washington Center
05:49PM 36.2600 -79.6028 55° Northeast 483 556 30,100 787 Climbing Washington Center
05:50PM 36.3267 -79.4825 55° Northeast 472 543 30,900 454 Climbing Washington Center
05:51PM 36.4083 -79.3342 56° Northeast 472 543 31,000 50 Climbing Washington Center
05:52PM 36.4858 -79.1933 56° Northeast 478 550 31,000 -197 Level Washington Center
05:53PM 36.5625 -79.0675 53° Northeast 491 565 30,600 -1,770 Descending Washington Center
05:54PM 36.6483 -78.9083 56° Northeast 497 572 27,400 -2,797 Descending Washington Center
05:55PM 36.7167 -78.7817 56° Northeast 498 573 25,100 -1,220 Descending Washington Center
05:56PM 36.7911 -78.6447 56° Northeast 484 557 25,000 -49 Descending Washington Center
05:57PM 36.8803 -78.4975 53° Northeast 478 550 25,000  Level Washington Center
05:58PM 36.9908 -78.4081 33° Northeast 464 534 25,000  Level Washington Center
05:59PM 37.1036 -78.3183 32° Northeast 469 540 25,000  Level Washington Center
06:00PM 37.2056 -78.2361 33° Northeast 482 555 25,000 -397 Level Washington Center
06:01PM 37.3308 -78.1383 32° Northeast 487 560 24,200 -793 Descending Washington Center
06:02PM 37.4411 -78.0481 33° Northeast 482 555 23,400 -610 Descending Washington Center
06:03PM 37.5492 -77.9625 32° Northeast 476 548 23,000 -353 Descending Washington Center
06:04PM 37.6614 -77.8714 33° Northeast 466 536 22,700 -1,587 Descending Washington Center
06:05PM 37.7694 -77.7828 33° Northeast 466 536 19,800 -2,773 Descending Washington Center
06:06PM 37.8689 -77.7014 33° Northeast 455 524 17,200 -2,723 Descending Washington Center
06:07PM 37.9683 -77.6200 33° Northeast 432 497 14,400 -2,529 Descending Washington Center
06:08PM 38.0531 -77.5536 32° Northeast 420 483 12,100 -2,132 Descending Washington Center
06:09PM 38.1397 -77.4819 33° Northeast 390 449 10,100 -1,041 Descending Washington Center
06:10PM 38.2133 -77.4283 30° Northeast 344 396 10,000 -99 Descending Washington Center
06:11PM 38.2850 -77.3853 25° Northeast 303 349 9,900 -712 Descending Washington Center
06:12PM 38.3606 -77.3553 17° North 291 335 8,600 -1,311 Descending Washington Center
06:13PM 38.4397 -77.3597 357° North 274 315 7,300 -1,190 Descending Washington Center
06:14PM 38.5147 -77.3642 357° North 274 315 6,200 -1,100 Descending Washington Center
06:15PM 38.5875 -77.3658 359° North 269 310 5,100 -942 Descending Washington Center
06:16PM 38.6711 -77.3625 North 269 310 4,300 -555 Descending Washington Center
06:17PM 38.7419 -77.3617 North 269 310 4,000 -222 Descending Washington Center
06:18PM 38.8500 -77.3500 North 273 314 3,800 -438 Descending Potomac TRACON
06:19PM 38.9167 -77.3500 360° North 272 313 3,000 -400 Descending Potomac TRACON
06:20PM 38.9833 -77.3500 360° North 251 289 3,000  Level Potomac TRACON
06:21PM 39.0500 -77.3500 360° North 204 235 3,000 -522 Level Potomac TRACON
06:22PM 39.0667 -77.4000 293° West 192 221 2,000 -737 Descending Potomac TRACON
06:23PM 39.0167 -77.4333 207° Southwest 154 177 1,600 -450 Descending Potomac TRACON
06:24PM 38.9833 -77.4333 180° South 118 136 1,100 -500 Descending Potomac TRACON
06:26PM 38.9474 -77.4599 191° South  Level Estimated
06:33PM 38.9474 -77.4599 191° South  Level Estimated
06:34PM 38.9474 -77.4599 191° South  Level Estimated